createdAt,value
2018-07-04T00:02:36.721Z,94.50
2018-07-04T00:06:18.341Z,94.60
2018-07-04T00:10:00.223Z,94.90
2018-07-04T00:13:42.128Z,94.70
2018-07-04T00:17:23.920Z,94.20
2018-07-04T00:21:05.670Z,94.60
2018-07-04T00:24:47.393Z,94.80
2018-07-04T00:28:29.328Z,94.90
2018-07-04T00:32:11.082Z,94.60
2018-07-04T00:35:52.683Z,95.00
2018-07-04T00:43:10.171Z,95.10
2018-07-04T00:50:27.677Z,94.50
2018-07-04T00:54:09.499Z,94.50
2018-07-04T00:57:51.265Z,94.70
2018-07-04T01:01:33.087Z,95.00
2018-07-04T01:08:50.823Z,96.00
2018-07-04T01:12:32.553Z,96.20
2018-07-04T01:16:14.325Z,96.40
2018-07-04T01:19:56.217Z,97.10
2018-07-04T01:23:38.044Z,97.70
2018-07-04T01:27:19.713Z,98.30
2018-07-04T01:31:01.446Z,98.70
2018-07-04T01:34:43.724Z,99.10
2018-07-04T01:38:25.254Z,99.30
2018-07-04T01:42:08.170Z,99.50
2018-07-04T01:45:49.938Z,99.50
2018-07-04T01:49:32.030Z,99.50
2018-07-04T01:53:13.741Z,99.80
2018-07-04T01:56:55.441Z,99.80
2018-07-04T02:00:37.052Z,99.90
2018-07-04T02:04:18.786Z,99.90
2018-07-04T02:11:37.312Z,98.90
2018-07-04T02:15:19.387Z,99.20
2018-07-04T02:19:01.130Z,98.80
2018-07-04T02:22:43.246Z,99.00
2018-07-04T02:26:24.962Z,99.20
2018-07-04T02:30:06.588Z,99.40
2018-07-04T02:33:48.490Z,99.00
2018-07-04T02:37:30.290Z,99.00
2018-07-04T02:41:11.974Z,99.10
2018-07-04T02:48:29.414Z,98.90
2018-07-04T02:55:47.033Z,98.90
2018-07-04T03:03:04.374Z,98.00
2018-07-04T03:06:46.224Z,98.10
2018-07-04T03:10:28.120Z,98.30
2018-07-04T03:14:10.096Z,98.40
2018-07-04T03:17:51.924Z,98.50
2018-07-04T03:21:33.690Z,98.20
2018-07-04T03:25:15.524Z,98.10
2018-07-04T03:28:57.123Z,97.90
2018-07-04T03:32:38.998Z,98.20
2018-07-04T03:36:20.882Z,98.10
2018-07-04T03:43:38.633Z,97.50
2018-07-04T03:47:20.539Z,97.70
2018-07-04T03:51:02.333Z,98.20
2018-07-04T03:54:43.937Z,98.70
2018-07-04T03:58:25.769Z,98.70
2018-07-04T04:02:07.871Z,98.70
2018-07-04T04:05:49.565Z,98.90
2018-07-04T04:09:31.281Z,98.80
2018-07-04T04:13:13.163Z,99.00
2018-07-04T04:16:54.793Z,99.40
2018-07-04T04:20:36.556Z,99.50
2018-07-04T04:24:18.440Z,99.80
2018-07-04T04:28:00.474Z,99.50
2018-07-04T04:31:42.059Z,99.20
2018-07-04T04:35:23.993Z,99.20
2018-07-04T04:39:05.989Z,99.10
2018-07-04T04:42:47.874Z,98.60
2018-07-04T04:46:29.697Z,97.90
2018-07-04T04:53:47.045Z,97.80
2018-07-04T04:57:28.860Z,97.70
2018-07-04T05:01:10.712Z,97.80
2018-07-04T05:04:52.327Z,97.90
2018-07-04T05:08:34.254Z,97.70
2018-07-04T05:12:16.216Z,97.00
2018-07-04T05:15:58.131Z,96.30
2018-07-04T05:19:39.949Z,96.00
2018-07-04T05:23:21.815Z,95.90
2018-07-04T05:27:03.733Z,95.50
2018-07-04T05:30:45.468Z,95.20
2018-07-04T05:34:27.205Z,95.40
2018-07-04T05:41:45.028Z,93.90
2018-07-04T05:45:28.296Z,93.70
2018-07-04T05:49:10.131Z,93.30
2018-07-04T05:52:51.803Z,93.10
2018-07-04T05:56:33.477Z,92.80
2018-07-04T06:00:15.386Z,92.80
2018-07-04T06:03:57.243Z,92.80
2018-07-04T06:07:39.366Z,92.20
2018-07-04T06:14:56.962Z,92.30
2018-07-04T06:22:14.463Z,92.50
2018-07-04T06:25:56.221Z,92.30
2018-07-04T06:29:38.105Z,92.50
2018-07-04T06:33:19.851Z,92.50
2018-07-04T06:37:01.838Z,92.30
2018-07-04T06:40:24.711Z,91.90
2018-07-04T06:43:47.624Z,91.70
2018-07-04T06:47:10.469Z,91.80
2018-07-04T06:50:33.359Z,91.40
2018-07-04T06:53:56.225Z,91.10
2018-07-04T06:57:20.157Z,90.90
2018-07-04T07:04:25.106Z,89.70
2018-07-04T07:08:07.044Z,89.10
2018-07-04T07:11:48.641Z,89.20
2018-07-04T07:15:31.152Z,89.80
2018-07-04T07:19:14.432Z,85.60
2018-07-04T07:22:57.378Z,84.10
2018-07-04T07:26:39.682Z,85.00
2018-07-04T07:30:21.772Z,84.10
2018-07-04T07:37:39.380Z,82.00
2018-07-04T07:41:21.279Z,82.60
2018-07-04T07:48:40.918Z,81.90
2018-07-04T07:52:22.485Z,80.70
2018-07-04T07:59:39.849Z,75.80
2018-07-04T08:03:23.013Z,75.50
2018-07-04T08:07:05.882Z,74.80
2018-07-04T08:10:47.667Z,75.50
2018-07-04T08:14:29.456Z,75.70
2018-07-04T08:18:12.139Z,73.60
2018-07-04T08:25:30.072Z,75.00
2018-07-04T08:29:11.916Z,74.40
2018-07-04T08:32:53.848Z,73.40
2018-07-04T08:36:35.619Z,74.20
2018-07-04T08:40:17.475Z,74.30
2018-07-04T08:47:35.276Z,73.20
2018-07-04T08:51:17.236Z,71.20
2018-07-04T09:02:10.984Z,69.30
2018-07-04T09:05:52.787Z,67.90
2018-07-04T09:09:34.417Z,68.60
2018-07-04T09:13:16.433Z,68.10
2018-07-04T09:16:58.143Z,65.60
2018-07-04T09:20:39.869Z,63.70
2018-07-04T09:24:21.741Z,65.50
2018-07-04T09:28:03.496Z,66.80
2018-07-04T09:31:45.179Z,67.70
2018-07-04T09:35:26.975Z,64.90
2018-07-04T09:39:08.620Z,65.50
2018-07-04T09:42:50.544Z,66.00
2018-07-04T09:46:32.719Z,65.40
2018-07-04T09:53:50.339Z,63.80
2018-07-04T09:57:31.947Z,62.10
2018-07-04T10:01:19.365Z,60.20
2018-07-04T10:08:37.194Z,60.10
2018-07-04T10:12:18.935Z,59.60
2018-07-04T10:16:00.799Z,59.30
2018-07-04T10:19:42.444Z,58.90
2018-07-04T10:23:24.420Z,59.70
2018-07-04T10:27:06.156Z,58.90
2018-07-04T10:30:47.691Z,57.90
2018-07-04T10:34:29.388Z,56.90
2018-07-04T10:38:11.383Z,56.30
2018-07-04T10:41:53.386Z,57.40
2018-07-04T10:45:35.229Z,58.00
2018-07-04T10:49:17.121Z,58.00
2018-07-04T10:56:34.383Z,57.70
2018-07-04T11:00:16.449Z,57.90
2018-07-04T11:03:58.101Z,57.20
2018-07-04T11:07:39.774Z,55.70
2018-07-04T11:11:21.446Z,54.40
2018-07-04T11:15:03.108Z,53.70
2018-07-04T11:22:20.633Z,48.80
2018-07-04T11:26:02.554Z,47.70
2018-07-04T11:29:44.282Z,47.90
2018-07-04T11:33:26.016Z,49.10
2018-07-04T11:37:07.714Z,49.60
2018-07-04T11:40:49.499Z,53.10
2018-07-04T11:44:31.277Z,52.10
2018-07-04T11:47:54.070Z,51.50
2018-07-04T11:51:16.971Z,50.00
2018-07-04T11:54:39.838Z,48.90
2018-07-04T11:58:02.707Z,50.30
2018-07-04T12:01:25.571Z,49.80
2018-07-04T12:05:07.495Z,50.90
2018-07-04T12:08:30.307Z,49.10
2018-07-04T12:11:53.273Z,50.20
2018-07-04T12:15:16.111Z,51.80
2018-07-04T12:18:38.942Z,52.50
2018-07-04T12:22:01.785Z,52.80
2018-07-04T12:25:24.630Z,53.80
2018-07-04T12:28:47.474Z,52.90
2018-07-04T12:32:10.346Z,54.10
2018-07-04T12:35:33.142Z,53.20
2018-07-04T12:38:55.991Z,52.90
2018-07-04T12:42:18.833Z,51.70
2018-07-04T12:45:41.642Z,50.70
2018-07-04T12:49:05.513Z,49.80
2018-07-04T12:52:28.347Z,49.10
2018-07-04T12:59:46.007Z,53.50
2018-07-04T13:03:28.018Z,53.10
2018-07-04T13:07:09.764Z,52.60
2018-07-04T13:18:03.044Z,50.50
2018-07-04T13:21:45.073Z,50.30
2018-07-04T13:25:26.825Z,50.00
2018-07-04T13:29:08.645Z,49.90
2018-07-04T13:32:50.417Z,49.70
2018-07-04T13:36:32.189Z,49.90
2018-07-04T13:40:15.085Z,50.00
2018-07-04T13:43:56.992Z,50.00
2018-07-04T13:47:38.846Z,50.20
2018-07-04T13:51:20.662Z,50.10
2018-07-04T13:55:02.460Z,48.50
2018-07-04T13:58:44.433Z,47.60
2018-07-04T14:02:26.317Z,47.20
2018-07-04T14:06:09.478Z,45.40
2018-07-04T14:09:51.255Z,45.00
2018-07-04T14:13:33.018Z,45.00
2018-07-04T14:17:14.897Z,43.90
2018-07-04T14:20:56.585Z,43.60
2018-07-04T14:24:38.360Z,42.30
2018-07-04T14:28:20.256Z,42.10
2018-07-04T14:32:01.867Z,41.50
2018-07-04T14:35:43.679Z,41.20
2018-07-04T14:39:25.527Z,41.40
2018-07-04T14:43:07.485Z,40.70
2018-07-04T14:46:49.153Z,40.80
2018-07-04T14:50:30.799Z,40.30
2018-07-04T14:54:12.642Z,40.30
2018-07-04T14:57:54.381Z,40.20
2018-07-04T15:01:36.118Z,40.10
2018-07-04T15:08:53.554Z,38.50
2018-07-04T15:16:11.279Z,39.20
2018-07-04T15:19:53.139Z,38.40
2018-07-04T15:27:10.685Z,37.80
2018-07-04T15:30:52.564Z,39.00
2018-07-04T15:34:34.449Z,38.90
2018-07-04T15:38:16.452Z,39.40
2018-07-04T15:41:57.996Z,38.60
2018-07-04T15:45:39.813Z,38.40
2018-07-04T15:49:21.805Z,37.30
2018-07-04T15:53:03.807Z,37.30
2018-07-04T15:56:45.721Z,37.30
2018-07-04T16:00:27.738Z,37.80
2018-07-04T16:04:09.505Z,37.40
2018-07-04T16:07:51.399Z,37.70
2018-07-04T16:11:33.288Z,36.40
2018-07-04T16:15:15.124Z,36.30
2018-07-04T16:22:32.806Z,37.20
2018-07-04T16:26:14.705Z,35.90
2018-07-04T16:29:56.650Z,36.30
2018-07-04T16:33:38.378Z,35.40
2018-07-04T16:37:20.146Z,35.10
2018-07-04T16:41:02.209Z,35.40
2018-07-04T16:44:45.982Z,34.80
2018-07-04T16:48:27.868Z,34.20
2018-07-04T16:52:09.430Z,34.80
2018-07-04T16:55:51.195Z,34.50
2018-07-04T16:59:32.984Z,35.10
2018-07-04T17:03:14.684Z,34.90
2018-07-04T17:06:56.386Z,35.30
2018-07-04T17:10:38.071Z,35.50
2018-07-04T17:14:20.062Z,35.90
2018-07-04T17:21:38.666Z,35.90
2018-07-04T17:25:20.564Z,36.90
2018-07-04T17:29:02.281Z,37.20
2018-07-04T17:32:44.271Z,38.10
2018-07-04T17:36:26.179Z,37.60
2018-07-04T17:40:07.926Z,38.40
2018-07-04T17:43:49.726Z,38.20
2018-07-04T17:47:32.359Z,37.60
2018-07-04T17:51:14.214Z,37.60
2018-07-04T17:54:56.342Z,37.90
2018-07-04T17:58:38.308Z,38.50
2018-07-04T18:02:20.355Z,38.70
2018-07-04T18:06:02.103Z,38.70
2018-07-04T18:09:44.018Z,39.10
2018-07-04T18:13:25.880Z,44.80
2018-07-04T18:17:07.575Z,46.90
2018-07-04T18:24:25.092Z,47.30
2018-07-04T18:28:06.868Z,48.80
2018-07-04T18:35:24.336Z,51.10
2018-07-04T18:39:06.102Z,51.40
2018-07-04T18:49:59.539Z,52.80
2018-07-04T18:53:41.394Z,53.10
2018-07-04T18:57:23.193Z,53.70
2018-07-04T19:01:05.401Z,54.60
2018-07-04T19:04:47.246Z,55.60
2018-07-04T19:08:28.967Z,54.70
2018-07-04T19:12:10.800Z,55.40
2018-07-04T19:15:52.728Z,55.90
2018-07-04T19:19:34.850Z,55.90
2018-07-04T19:23:16.754Z,56.40
2018-07-04T19:26:59.433Z,57.30
2018-07-04T19:30:41.338Z,57.30
2018-07-04T19:34:23.597Z,57.30
2018-07-04T19:38:05.396Z,57.50
2018-07-04T19:41:47.667Z,58.00
2018-07-04T19:45:29.372Z,59.00
2018-07-04T19:49:10.992Z,59.20
2018-07-04T19:52:52.702Z,59.70
2018-07-04T19:56:35.534Z,59.80
2018-07-04T20:00:17.351Z,59.90
2018-07-04T20:03:58.954Z,60.00
2018-07-04T20:07:40.858Z,60.40
2018-07-04T20:11:23.087Z,60.80
2018-07-04T20:15:05.025Z,61.10
2018-07-04T20:22:22.232Z,61.50
2018-07-04T20:26:04.227Z,62.00
2018-07-04T20:29:46.235Z,63.30
2018-07-04T20:33:27.909Z,64.60
2018-07-04T20:37:10.133Z,65.90
2018-07-04T20:40:51.815Z,66.50
2018-07-04T20:44:33.756Z,68.00
2018-07-04T20:48:15.809Z,68.60
2018-07-04T20:51:57.614Z,68.00
2018-07-04T20:55:39.770Z,69.10
2018-07-04T20:59:21.652Z,69.00
2018-07-04T21:03:03.523Z,69.30
2018-07-04T21:06:45.565Z,70.20
2018-07-04T21:10:27.421Z,71.30
2018-07-04T21:14:09.054Z,70.10
2018-07-04T21:17:50.715Z,71.70
2018-07-04T21:21:32.371Z,72.30
2018-07-04T21:25:13.997Z,71.80
2018-07-04T21:28:55.840Z,72.00
2018-07-04T21:32:37.736Z,72.20
2018-07-04T21:36:19.526Z,73.30
2018-07-04T21:40:01.454Z,73.60
2018-07-04T21:43:43.225Z,73.90
2018-07-04T21:47:25.030Z,74.90
2018-07-04T21:51:07.323Z,74.90
2018-07-04T21:58:24.558Z,75.40
2018-07-04T22:05:42.451Z,76.10
2018-07-04T22:09:24.160Z,75.50
2018-07-04T22:13:06.170Z,75.40
2018-07-04T22:16:48.026Z,75.70
2018-07-04T22:20:30.750Z,76.50
2018-07-04T22:25:41.614Z,77.30
2018-07-04T22:29:23.406Z,77.40
2018-07-04T22:33:05.212Z,78.10
2018-07-04T22:36:46.883Z,78.20
2018-07-04T22:40:28.851Z,79.00
2018-07-04T22:44:10.695Z,79.30
2018-07-04T22:47:52.369Z,79.90
2018-07-04T22:51:33.891Z,79.00
2018-07-04T22:55:15.654Z,80.20
2018-07-04T22:58:57.229Z,79.80
2018-07-04T23:02:38.991Z,80.80
2018-07-04T23:06:20.710Z,80.70
2018-07-04T23:10:02.499Z,80.80
2018-07-04T23:13:44.250Z,80.70
2018-07-04T23:17:26.098Z,81.20
2018-07-04T23:21:07.881Z,80.90
2018-07-04T23:24:49.678Z,80.80
2018-07-04T23:28:31.456Z,80.30
2018-07-04T23:32:13.426Z,81.10
2018-07-04T23:39:31.866Z,83.10
2018-07-04T23:43:13.789Z,82.70
2018-07-04T23:46:55.636Z,82.50
2018-07-04T23:50:37.513Z,82.20
2018-07-04T23:54:19.334Z,82.40
2018-07-04T23:58:01.053Z,81.90
